createdAt,value
2019-01-10T00:01:26.808Z,8.05
2019-01-10T00:03:54.228Z,6.87
2019-01-10T00:06:21.560Z,5.55
2019-01-10T00:08:48.978Z,6.55
2019-01-10T00:11:16.337Z,6.72
2019-01-10T00:13:43.750Z,7.53
2019-01-10T00:16:11.057Z,6.85
2019-01-10T00:18:38.379Z,5.47
2019-01-10T00:21:05.775Z,6.37
2019-01-10T00:23:33.195Z,5.35
2019-01-10T00:26:00.593Z,6.22
2019-01-10T00:28:27.928Z,6.03
2019-01-10T00:30:55.666Z,5.42
2019-01-10T00:33:23.057Z,6.75
2019-01-10T00:35:50.378Z,5.47
2019-01-10T00:38:17.775Z,5.55
2019-01-10T00:40:45.482Z,5.72
2019-01-10T00:43:12.823Z,6.22
2019-01-10T00:45:40.279Z,6.35
2019-01-10T00:48:07.666Z,5.95
2019-01-10T00:50:35.034Z,6.62
2019-01-10T00:53:02.328Z,6.35
2019-01-10T00:55:29.634Z,6.45
2019-01-10T00:57:56.933Z,6.75
2019-01-10T01:00:25.341Z,6.72
2019-01-10T01:02:52.837Z,6.42
2019-01-10T01:05:21.071Z,5.83
2019-01-10T01:07:48.404Z,5.67
2019-01-10T01:10:18.165Z,5.05
2019-01-10T01:12:45.649Z,5.90
2019-01-10T01:15:14.724Z,5.85
2019-01-10T01:17:42.122Z,4.65
2019-01-10T01:20:10.009Z,4.65
2019-01-10T01:22:37.288Z,4.70
2019-01-10T01:25:05.566Z,4.42
2019-01-10T01:27:32.858Z,6.05
2019-01-10T01:30:00.294Z,5.70
2019-01-10T01:32:27.675Z,5.33
2019-01-10T01:34:55.083Z,5.33
2019-01-10T01:37:22.483Z,5.62
2019-01-10T01:39:49.861Z,5.85
2019-01-10T01:42:17.296Z,6.60
2019-01-10T01:44:44.630Z,4.28
2019-01-10T01:47:12.033Z,5.80
2019-01-10T01:49:39.722Z,4.85
2019-01-10T01:52:07.037Z,5.35
2019-01-10T01:54:34.443Z,5.40
2019-01-10T01:57:01.804Z,5.55
2019-01-10T01:59:29.148Z,5.50
2019-01-10T02:01:56.524Z,5.25
2019-01-10T02:04:23.852Z,5.17
2019-01-10T02:06:51.245Z,4.58
2019-01-10T02:09:18.665Z,5.10
2019-01-10T02:11:45.984Z,5.60
2019-01-10T02:14:13.606Z,4.60
2019-01-10T02:16:40.896Z,5.25
2019-01-10T02:19:08.226Z,4.10
2019-01-10T02:21:35.532Z,4.65
2019-01-10T02:24:02.845Z,4.75
2019-01-10T02:26:30.238Z,4.28
2019-01-10T02:28:58.062Z,4.83
2019-01-10T02:31:25.459Z,5.08
2019-01-10T02:33:52.902Z,4.90
2019-01-10T02:36:20.229Z,4.70
2019-01-10T02:38:47.664Z,5.17
2019-01-10T02:41:15.084Z,5.33
2019-01-10T02:43:42.487Z,5.03
2019-01-10T02:46:09.841Z,4.67
2019-01-10T02:48:37.165Z,5.00
2019-01-10T02:51:04.500Z,5.97
2019-01-10T02:53:32.297Z,5.53
2019-01-10T02:55:59.725Z,4.62
2019-01-10T02:58:27.106Z,7.28
2019-01-10T03:00:54.761Z,4.47
2019-01-10T03:03:22.170Z,4.97
2019-01-10T03:05:49.761Z,4.50
2019-01-10T03:08:17.115Z,4.62
2019-01-10T03:10:44.821Z,5.47
2019-01-10T03:13:12.118Z,5.15
2019-01-10T03:15:39.505Z,4.90
2019-01-10T03:18:06.886Z,9.83
2019-01-10T03:20:34.310Z,4.87
2019-01-10T03:23:01.612Z,4.90
2019-01-10T03:25:28.909Z,6.78
2019-01-10T03:27:56.313Z,5.78
2019-01-10T03:30:23.638Z,11.97
2019-01-10T03:32:51.060Z,4.72
2019-01-10T03:35:18.471Z,5.80
2019-01-10T03:37:45.886Z,5.17
2019-01-10T03:40:18.133Z,5.40
2019-01-10T03:42:45.416Z,4.65
2019-01-10T03:45:14.510Z,4.70
2019-01-10T03:47:41.943Z,4.65
2019-01-10T03:50:11.105Z,4.50
2019-01-10T03:52:38.417Z,5.12
2019-01-10T03:55:05.909Z,5.95
2019-01-10T03:57:33.626Z,5.15
2019-01-10T04:00:01.035Z,5.20
2019-01-10T04:02:28.331Z,5.85
2019-01-10T04:04:55.678Z,5.05
2019-01-10T04:07:23.061Z,5.17
2019-01-10T04:09:50.485Z,5.12
2019-01-10T04:12:17.885Z,4.33
2019-01-10T04:14:45.285Z,4.70
2019-01-10T04:17:12.655Z,5.22
2019-01-10T04:19:40.041Z,5.70
2019-01-10T04:22:07.638Z,5.58
2019-01-10T04:24:35.087Z,4.65
2019-01-10T04:27:02.419Z,5.08
2019-01-10T04:29:29.846Z,5.20
2019-01-10T04:31:57.155Z,5.55
2019-01-10T04:34:24.479Z,5.70
2019-01-10T04:36:51.883Z,7.70
2019-01-10T04:39:19.303Z,7.75
2019-01-10T04:41:46.733Z,6.83
2019-01-10T04:44:14.129Z,5.50
2019-01-10T04:46:41.547Z,6.30
2019-01-10T04:49:08.833Z,5.28
2019-01-10T04:51:36.274Z,5.40
2019-01-10T04:54:03.913Z,5.55
2019-01-10T04:56:31.330Z,5.62
2019-01-10T04:58:58.750Z,5.45
2019-01-10T05:01:26.189Z,5.87
2019-01-10T05:03:53.589Z,6.35
2019-01-10T05:06:20.985Z,5.47
2019-01-10T05:08:48.383Z,5.90
2019-01-10T05:11:15.714Z,5.83
2019-01-10T05:13:43.117Z,7.50
2019-01-10T05:16:10.514Z,10.40
2019-01-10T05:18:37.838Z,7.10
2019-01-10T05:21:05.257Z,6.00
2019-01-10T05:23:32.658Z,5.65
2019-01-10T05:26:00.175Z,6.20
2019-01-10T05:28:27.729Z,5.55
2019-01-10T05:30:55.017Z,6.67
2019-01-10T05:33:22.343Z,7.67
2019-01-10T05:35:49.794Z,6.28
2019-01-10T05:38:17.225Z,5.92
2019-01-10T05:40:44.537Z,6.00
2019-01-10T05:43:14.043Z,5.62
2019-01-10T05:45:41.474Z,6.08
2019-01-10T05:48:08.845Z,5.47
2019-01-10T05:50:36.254Z,4.97
2019-01-10T05:53:03.819Z,4.92
2019-01-10T05:55:31.258Z,5.87
2019-01-10T05:57:58.682Z,7.20
2019-01-10T06:00:27.290Z,6.35
2019-01-10T06:02:54.802Z,4.83
2019-01-10T06:05:22.225Z,5.45
2019-01-10T06:07:49.573Z,5.53
2019-01-10T06:10:22.406Z,6.42
2019-01-10T06:12:49.773Z,8.70
2019-01-10T06:15:17.134Z,11.60
2019-01-10T06:17:44.485Z,6.37
2019-01-10T06:20:13.162Z,6.97
2019-01-10T06:22:40.591Z,11.60
2019-01-10T06:25:08.121Z,7.00
2019-01-10T06:27:35.544Z,10.55
2019-01-10T06:30:03.852Z,5.37
2019-01-10T06:32:31.293Z,4.92
2019-01-10T06:34:58.627Z,10.10
2019-01-10T06:37:26.065Z,12.18
2019-01-10T06:39:53.523Z,10.25
2019-01-10T06:42:20.947Z,11.33
2019-01-10T06:44:48.281Z,7.70
2019-01-10T06:47:15.732Z,6.00
2019-01-10T06:49:43.061Z,7.97
2019-01-10T06:52:10.489Z,11.50
2019-01-10T06:54:37.904Z,15.18
2019-01-10T06:57:05.608Z,5.62
2019-01-10T06:59:32.934Z,12.98
2019-01-10T07:02:00.237Z,11.53
2019-01-10T07:04:27.593Z,11.18
2019-01-10T07:06:55.006Z,9.83
2019-01-10T07:09:22.407Z,8.83
2019-01-10T07:11:49.780Z,10.88
2019-01-10T07:14:17.215Z,10.50
2019-01-10T07:16:53.283Z,4.35
2019-01-10T07:19:21.350Z,5.15
2019-01-10T07:21:57.387Z,8.90
2019-01-10T07:24:25.690Z,9.38
2019-01-10T07:26:56.951Z,8.95
2019-01-10T07:29:24.359Z,8.80
2019-01-10T07:31:51.683Z,5.78
2019-01-10T07:34:18.968Z,9.80
2019-01-10T07:36:49.018Z,3.42
2019-01-10T07:39:16.424Z,4.85
2019-01-10T07:41:43.913Z,4.17
2019-01-10T07:44:11.341Z,5.12
2019-01-10T07:46:44.708Z,6.95
2019-01-10T07:49:12.140Z,5.15
2019-01-10T07:51:45.304Z,8.50
2019-01-10T07:54:12.886Z,12.78
2019-01-10T07:56:40.587Z,7.22
2019-01-10T07:59:07.943Z,5.10
2019-01-10T08:01:35.370Z,4.60
2019-01-10T08:04:02.784Z,4.12
2019-01-10T08:06:30.181Z,4.10
2019-01-10T08:08:57.632Z,4.60
2019-01-10T08:11:25.324Z,4.42
2019-01-10T08:13:52.749Z,4.30
2019-01-10T08:16:20.420Z,4.58
2019-01-10T08:18:47.776Z,4.17
2019-01-10T08:21:15.156Z,4.58
2019-01-10T08:23:42.454Z,10.58
2019-01-10T08:26:10.055Z,7.70
2019-01-10T08:28:37.454Z,9.05
2019-01-10T08:31:04.882Z,11.03
2019-01-10T08:33:32.210Z,10.35
2019-01-10T08:35:59.794Z,10.48
2019-01-10T08:38:27.167Z,10.40
2019-01-10T08:40:54.597Z,11.57
2019-01-10T08:43:21.948Z,11.88
2019-01-10T08:45:49.342Z,6.80
2019-01-10T08:48:16.715Z,4.70
2019-01-10T08:50:44.150Z,10.50
2019-01-10T08:53:11.442Z,7.70
2019-01-10T08:55:38.728Z,7.22
2019-01-10T08:58:06.140Z,11.65
2019-01-10T09:00:33.555Z,7.85
2019-01-10T09:03:00.954Z,10.30
2019-01-10T09:05:28.648Z,4.95
2019-01-10T09:07:55.938Z,4.72
2019-01-10T09:10:28.324Z,5.55
2019-01-10T09:12:55.938Z,4.28
2019-01-10T09:15:33.746Z,5.72
2019-01-10T09:17:52.697Z,6.33
2019-01-10T09:20:20.147Z,4.47
2019-01-10T09:22:47.545Z,6.47
2019-01-10T09:25:14.992Z,6.00
2019-01-10T09:27:42.343Z,5.12
2019-01-10T09:30:13.120Z,6.83
2019-01-10T09:32:40.526Z,4.40
2019-01-10T09:35:07.843Z,4.85
2019-01-10T09:37:35.305Z,6.55
2019-01-10T09:40:03.881Z,5.75
2019-01-10T09:42:31.195Z,4.75
2019-01-10T09:44:58.525Z,4.53
2019-01-10T09:47:25.928Z,9.95
2019-01-10T09:49:53.382Z,7.25
2019-01-10T09:52:20.776Z,4.92
2019-01-10T09:54:48.130Z,6.15
2019-01-10T09:57:15.515Z,7.03
2019-01-10T09:59:43.018Z,9.70
2019-01-10T10:02:10.359Z,6.95
2019-01-10T10:04:37.770Z,6.72
2019-01-10T10:07:05.529Z,4.20
2019-01-10T10:09:32.938Z,5.60
2019-01-10T10:12:00.259Z,9.10
2019-01-10T10:14:27.955Z,6.08
2019-01-10T10:16:55.273Z,4.83
2019-01-10T10:19:22.573Z,5.60
2019-01-10T10:21:49.917Z,5.50
2019-01-10T10:24:17.379Z,5.55
2019-01-10T10:26:44.831Z,4.30
2019-01-10T10:29:12.199Z,5.45
2019-01-10T10:31:39.650Z,4.70
2019-01-10T10:34:07.083Z,5.30
2019-01-10T10:36:34.541Z,6.53
2019-01-10T10:39:01.972Z,7.78
2019-01-10T10:41:29.355Z,5.60
2019-01-10T10:43:56.684Z,5.62
2019-01-10T10:46:24.103Z,5.50
2019-01-10T10:48:51.545Z,5.00
2019-01-10T10:51:18.865Z,4.30
2019-01-10T10:53:46.215Z,5.62
2019-01-10T10:56:13.635Z,4.50
2019-01-10T10:58:41.101Z,4.58
2019-01-10T11:01:09.133Z,5.42
2019-01-10T11:03:36.514Z,4.60
2019-01-10T11:06:04.394Z,4.50
2019-01-10T11:08:31.689Z,5.00
2019-01-10T11:10:59.148Z,5.20
2019-01-10T11:13:27.011Z,5.12
2019-01-10T11:15:54.929Z,7.70
2019-01-10T11:18:22.241Z,8.05
2019-01-10T11:20:49.750Z,6.50
2019-01-10T11:23:17.049Z,37.83
2019-01-10T11:25:44.455Z,44.60
2019-01-10T11:28:11.944Z,67.85
2019-01-10T11:30:39.333Z,52.73
2019-01-10T11:33:06.952Z,48.90
2019-01-10T11:35:34.633Z,9.50
2019-01-10T11:38:01.940Z,13.88
2019-01-10T11:40:29.463Z,6.17
2019-01-10T11:42:57.025Z,7.03
2019-01-10T11:45:26.179Z,6.85
2019-01-10T11:47:53.640Z,12.73
2019-01-10T11:50:21.099Z,8.60
2019-01-10T11:52:49.323Z,6.85
2019-01-10T11:55:16.742Z,5.50
2019-01-10T11:57:44.492Z,5.60
2019-01-10T12:00:17.673Z,7.65
2019-01-10T12:02:45.078Z,5.95
2019-01-10T12:05:12.434Z,5.55
2019-01-10T12:07:39.852Z,6.05
2019-01-10T12:10:08.436Z,9.45
2019-01-10T12:12:36.166Z,13.75
2019-01-10T12:15:04.634Z,10.48
2019-01-10T12:17:32.022Z,7.53
2019-01-10T12:19:59.642Z,9.03
2019-01-10T12:22:27.078Z,8.08
2019-01-10T12:24:54.596Z,5.20
2019-01-10T12:27:22.025Z,5.40
2019-01-10T12:29:49.895Z,5.53
2019-01-10T12:32:17.286Z,5.35
2019-01-10T12:34:45.158Z,6.65
2019-01-10T12:37:12.652Z,5.67
2019-01-10T12:39:40.043Z,4.70
2019-01-10T12:42:07.569Z,6.00
2019-01-10T12:44:35.584Z,7.50
2019-01-10T12:47:02.898Z,6.80
2019-01-10T12:49:30.251Z,7.17
2019-01-10T12:51:57.691Z,12.60
2019-01-10T12:54:25.153Z,29.42
2019-01-10T12:56:52.539Z,16.80
2019-01-10T12:59:19.980Z,10.30
2019-01-10T13:01:47.398Z,14.75
2019-01-10T13:04:14.819Z,14.15
2019-01-10T13:06:42.245Z,11.78
2019-01-10T13:09:09.903Z,14.07
2019-01-10T13:11:37.334Z,17.25
2019-01-10T13:14:05.385Z,17.32
2019-01-10T13:16:33.170Z,13.55
2019-01-10T13:19:00.646Z,15.95
2019-01-10T13:21:28.007Z,16.23
2019-01-10T13:23:55.444Z,15.43
2019-01-10T13:26:22.866Z,15.05
2019-01-10T13:28:50.297Z,18.95
2019-01-10T13:31:37.145Z,19.75
2019-01-10T13:34:05.113Z,16.23
2019-01-10T13:36:32.795Z,15.63
2019-01-10T13:39:00.237Z,17.67
2019-01-10T13:41:27.658Z,20.95
2019-01-10T13:43:54.987Z,29.10
2019-01-10T13:46:22.635Z,14.75
2019-01-10T13:48:51.610Z,17.92
2019-01-10T13:51:19.268Z,7.50
2019-01-10T13:53:46.734Z,7.45
2019-01-10T13:56:14.059Z,7.75
2019-01-10T13:58:41.741Z,7.47
2019-01-10T14:03:36.541Z,6.25
2019-01-10T14:06:04.224Z,6.03
2019-01-10T14:08:37.164Z,8.80
2019-01-10T14:11:00.928Z,6.08
2019-01-10T14:13:28.359Z,6.20
2019-01-10T14:15:55.806Z,6.35
2019-01-10T14:18:23.187Z,6.92
2019-01-10T14:20:50.583Z,6.67
2019-01-10T14:23:17.902Z,6.08
2019-01-10T14:25:45.341Z,7.80
2019-01-10T14:28:12.794Z,9.40
2019-01-10T14:30:41.211Z,10.53
2019-01-10T14:33:10.650Z,7.10
2019-01-10T14:35:38.082Z,7.90
2019-01-10T14:38:05.686Z,7.72
2019-01-10T14:40:33.167Z,11.65
2019-01-10T14:43:00.619Z,10.53
2019-01-10T14:45:28.045Z,7.33
2019-01-10T14:48:01.670Z,11.48
2019-01-10T14:50:24.879Z,7.67
2019-01-10T14:52:52.243Z,6.12
2019-01-10T14:55:19.736Z,8.20
2019-01-10T14:57:47.229Z,10.00
2019-01-10T15:00:19.526Z,7.10
2019-01-10T15:02:47.224Z,6.17
2019-01-10T15:05:14.584Z,5.35
2019-01-10T15:07:42.130Z,5.33
2019-01-10T15:10:09.752Z,5.40
2019-01-10T15:12:37.197Z,5.03
2019-01-10T15:15:07.069Z,5.37
2019-01-10T15:17:34.505Z,22.42
2019-01-10T15:20:02.017Z,46.83
2019-01-10T15:22:29.449Z,28.07
2019-01-10T15:24:56.907Z,15.18
2019-01-10T15:27:24.343Z,11.50
2019-01-10T15:29:51.755Z,17.65
2019-01-10T15:32:19.178Z,13.45
2019-01-10T15:34:46.948Z,12.88
2019-01-10T15:37:14.841Z,8.50
2019-01-10T15:39:42.269Z,9.08
2019-01-10T15:42:09.763Z,15.63
2019-01-10T15:44:37.661Z,15.88
2019-01-10T15:47:05.657Z,5.53
2019-01-10T15:49:34.344Z,7.00
2019-01-10T15:52:01.716Z,8.98
2019-01-10T15:54:29.279Z,9.00
2019-01-10T15:57:00.689Z,7.78
2019-01-10T15:59:26.455Z,6.83
2019-01-10T16:01:53.912Z,5.90
2019-01-10T16:04:21.484Z,5.85
2019-01-10T16:06:48.985Z,5.50
2019-01-10T16:09:16.360Z,6.10
2019-01-10T16:11:44.068Z,5.70
2019-01-10T16:14:11.512Z,4.70
2019-01-10T16:16:38.949Z,8.55
2019-01-10T16:19:06.340Z,10.32
2019-01-10T16:21:33.896Z,14.10
2019-01-10T16:24:01.397Z,32.75
2019-01-10T16:26:28.841Z,19.12
2019-01-10T16:28:56.319Z,18.62
2019-01-10T16:31:23.763Z,16.95
2019-01-10T16:33:51.728Z,9.88
2019-01-10T16:36:19.265Z,11.43
2019-01-10T16:38:46.663Z,12.82
2019-01-10T16:41:14.135Z,7.20
2019-01-10T16:43:41.536Z,7.40
2019-01-10T16:46:08.993Z,7.70
2019-01-10T16:48:36.759Z,8.25
2019-01-10T16:51:04.249Z,8.83
2019-01-10T16:53:31.754Z,10.75
2019-01-10T16:55:59.087Z,8.15
2019-01-10T16:58:26.478Z,7.60
2019-01-10T17:00:53.940Z,8.55
2019-01-10T17:03:21.399Z,7.58
2019-01-10T17:05:48.822Z,6.37
2019-01-10T17:08:16.280Z,6.30
2019-01-10T17:10:43.809Z,6.05
2019-01-10T17:13:11.271Z,5.87
2019-01-10T17:15:38.779Z,5.80
2019-01-10T17:18:06.259Z,5.37
2019-01-10T17:20:33.764Z,6.35
2019-01-10T17:23:01.231Z,6.33
2019-01-10T17:25:28.729Z,6.10
2019-01-10T17:27:56.951Z,13.38
2019-01-10T17:30:31.543Z,9.78
2019-01-10T17:32:59.605Z,9.90
2019-01-10T17:35:29.473Z,11.85
2019-01-10T17:37:57.985Z,9.40
2019-01-10T17:40:25.571Z,11.95
2019-01-10T17:42:53.524Z,10.98
2019-01-10T17:45:23.207Z,9.48
2019-01-10T17:47:50.680Z,9.38
2019-01-10T17:50:18.571Z,10.28
2019-01-10T17:52:46.066Z,9.00
2019-01-10T17:55:13.513Z,8.03
2019-01-10T17:57:40.993Z,8.35
2019-01-10T18:00:12.246Z,7.42
2019-01-10T18:02:39.781Z,7.90
2019-01-10T18:05:08.458Z,7.60
2019-01-10T18:07:35.976Z,6.75
2019-01-10T18:10:05.062Z,7.62
2019-01-10T18:12:32.594Z,9.38
2019-01-10T18:14:59.978Z,9.93
2019-01-10T18:17:28.182Z,8.43
2019-01-10T18:19:55.698Z,11.28
2019-01-10T18:22:23.189Z,11.15
2019-01-10T18:24:50.604Z,10.70
2019-01-10T18:27:19.130Z,15.88
2019-01-10T18:29:46.563Z,9.45
2019-01-10T18:32:14.091Z,8.05
2019-01-10T18:34:43.392Z,9.38
2019-01-10T18:37:10.938Z,9.05
2019-01-10T18:39:38.405Z,7.90
2019-01-10T18:42:06.028Z,9.73
2019-01-10T18:44:33.500Z,8.80
2019-01-10T18:47:01.009Z,8.30
2019-01-10T18:49:28.466Z,7.95
2019-01-10T18:51:56.048Z,13.90
2019-01-10T18:54:23.624Z,13.98
2019-01-10T18:56:51.142Z,9.75
2019-01-10T18:59:18.683Z,9.85
2019-01-10T19:01:46.564Z,10.32
2019-01-10T19:04:14.153Z,9.10
2019-01-10T19:06:41.677Z,7.97
2019-01-10T19:09:09.179Z,9.20
2019-01-10T19:11:36.761Z,8.90
2019-01-10T19:14:04.687Z,8.28
2019-01-10T19:16:32.270Z,6.78
2019-01-10T19:18:59.759Z,9.10
2019-01-10T19:21:27.309Z,15.08
2019-01-10T19:23:54.739Z,8.10
2019-01-10T19:26:22.313Z,13.00
2019-01-10T19:28:49.776Z,12.55
2019-01-10T19:31:17.310Z,13.10
2019-01-10T19:33:44.881Z,9.15
2019-01-10T19:36:12.600Z,8.55
2019-01-10T19:38:40.166Z,7.92
2019-01-10T19:41:07.763Z,8.55
2019-01-10T19:43:35.370Z,7.97
2019-01-10T19:46:02.995Z,11.10
2019-01-10T19:48:30.563Z,11.10
2019-01-10T19:50:58.153Z,13.48
2019-01-10T19:53:26.090Z,11.63
2019-01-10T19:55:53.513Z,12.43
2019-01-10T19:58:21.062Z,11.05
2019-01-10T20:00:53.783Z,11.43
2019-01-10T20:03:21.222Z,10.58
2019-01-10T20:05:48.823Z,10.23
2019-01-10T20:08:16.754Z,11.80
2019-01-10T20:10:44.274Z,12.40
2019-01-10T20:13:11.988Z,12.25
2019-01-10T20:15:39.697Z,13.22
2019-01-10T20:18:07.662Z,11.73
2019-01-10T20:20:39.721Z,10.58
2019-01-10T20:23:09.785Z,11.45
2019-01-10T20:25:37.731Z,10.85
2019-01-10T20:28:06.177Z,11.30
2019-01-10T20:30:33.671Z,10.90
2019-01-10T20:33:01.243Z,11.40
2019-01-10T20:35:28.817Z,11.18
2019-01-10T20:37:56.359Z,11.78
2019-01-10T20:40:24.071Z,11.78
2019-01-10T20:42:51.761Z,11.05
2019-01-10T20:45:19.303Z,9.68
2019-01-10T20:47:46.804Z,8.85
2019-01-10T20:50:14.223Z,9.53
2019-01-10T20:52:41.868Z,9.68
2019-01-10T20:55:10.027Z,10.40
2019-01-10T20:57:37.613Z,9.85
2019-01-10T21:00:09.167Z,10.15
2019-01-10T21:02:36.665Z,8.95
2019-01-10T21:05:04.635Z,8.90
2019-01-10T21:07:32.631Z,9.75
2019-01-10T21:10:00.305Z,9.40
2019-01-10T21:12:27.888Z,9.30
2019-01-10T21:14:55.355Z,8.35
2019-01-10T21:17:22.985Z,9.28
2019-01-10T21:19:50.837Z,10.75
2019-01-10T21:22:18.315Z,15.10
2019-01-10T21:24:45.753Z,17.67
2019-01-10T21:27:13.332Z,16.50
2019-01-10T21:29:41.929Z,14.90
2019-01-10T21:32:09.586Z,11.65
2019-01-10T21:34:37.121Z,9.48
2019-01-10T21:37:04.643Z,8.95
2019-01-10T21:39:32.101Z,9.33
2019-01-10T21:41:59.553Z,9.03
2019-01-10T21:44:26.948Z,9.05
2019-01-10T21:46:54.531Z,10.18
2019-01-10T21:49:22.000Z,9.08
2019-01-10T21:51:49.843Z,9.10
2019-01-10T21:54:17.406Z,8.20
2019-01-10T21:56:45.764Z,8.55
2019-01-10T21:59:13.224Z,8.93
2019-01-10T22:01:40.708Z,10.53
2019-01-10T22:04:08.406Z,9.70
2019-01-10T22:06:36.380Z,9.48
2019-01-10T22:09:06.494Z,11.33
2019-01-10T22:11:34.518Z,8.88
2019-01-10T22:14:02.351Z,8.68
2019-01-10T22:16:30.532Z,8.55
2019-01-10T22:18:58.738Z,8.75
2019-01-10T22:21:26.824Z,9.65
2019-01-10T22:23:54.533Z,8.10
2019-01-10T22:26:22.518Z,9.13
2019-01-10T22:28:50.047Z,8.80
2019-01-10T22:31:17.920Z,9.70
2019-01-10T22:33:45.913Z,9.80
2019-01-10T22:36:14.274Z,10.35
2019-01-10T22:38:42.026Z,8.55
2019-01-10T22:41:10.363Z,9.80
2019-01-10T22:43:38.375Z,9.80
2019-01-10T22:46:07.241Z,8.83
2019-01-10T22:48:35.057Z,9.50
2019-01-10T22:51:02.879Z,8.45
2019-01-10T22:53:30.607Z,9.20
2019-01-10T22:55:58.669Z,8.20
2019-01-10T22:58:26.027Z,9.53
2019-01-10T23:01:27.745Z,9.38
2019-01-10T23:03:55.837Z,9.25
2019-01-10T23:06:23.625Z,10.10
2019-01-10T23:08:51.432Z,8.98
2019-01-10T23:11:23.229Z,10.80
2019-01-10T23:14:04.521Z,10.20
2019-01-10T23:16:33.349Z,9.43
2019-01-10T23:19:00.882Z,10.85
2019-01-10T23:21:30.217Z,8.98
2019-01-10T23:24:18.014Z,8.78
2019-01-10T23:26:55.287Z,8.55
2019-01-10T23:29:29.895Z,9.68
2019-01-10T23:31:57.291Z,8.53
2019-01-10T23:34:24.709Z,10.00
2019-01-10T23:36:52.697Z,9.60
2019-01-10T23:39:23.570Z,10.43
2019-01-10T23:41:55.703Z,10.82
2019-01-10T23:44:23.022Z,8.13
2019-01-10T23:46:50.502Z,9.05
2019-01-10T23:49:17.931Z,8.45
2019-01-10T23:51:45.404Z,9.18
2019-01-10T23:54:12.950Z,8.50
2019-01-10T23:56:40.302Z,9.20
2019-01-10T23:59:07.831Z,9.90
